Tanner, West Virginia
Current Conditions -  °F | °C
As of 11:53 AM on Thursday 27 Nov 2014 (Local Time) from KPKB Reporting Station
Light Rain Light Rain  
Wind Chill: 27°   Ceiling: 1400
Heat Index: 34°   Visibility: 7mi
Dew Point: 27°   Wind: 9mph
Humidity: 75%   Direction: 290°WNW
Pressure: 30.19"   Gusts: 18mph
Location:  38.9756°N, 80.9915°W
Report Text: KPKB 271653Z 29008G16KT 7SM -RA OVC014 01/M03 A3019 RMK AO2 RAB29 SLP229 P0000 T00111028
Loading
Personal Weather Stations






























Interactive Weather Map New forecast layout! Learn more

10-Day Weather Forecast

Advertisements
Track Severe Weather on mobile